Aérodrome :
LOGIN :

S'inscrire | Disclaimer

   EN    FR    IT 

 










Légende :    VFR   VFR Marginal   IFR   IFR Intensif   IFR Très Intensif
Visi : 
Plafond : 
>= 8 km
>= 3000ft
5 à 8 km
1000 à 3000 ft
1500m à 5 km
500 à 1000 ft
800 à 1500m
200 à 500 ft
< 800m
< 200 ft
Symboles :   Orages  Brouillard  Fortes neiges  Fortes précipitations  Vent > 20 kt
SIGMETs :   Divers  Orages  Givrage  Turbulence  Onde Orograph.  Cendres Volcan.






- Altitude de l'aérodrome : 82 ft
- Code IATA : QIE


LFMI - Istres

DERNIER METAR :
  • 031930Z AUTO 16010KT 9999 -RA ///TCU 20/15 Q1006

METARs EXPIRÉS :
  • 031900Z AUTO 17010KT 9999 +RA FEW048/// BKN066/// BKN076/// ///TCU 21/17 Q1006
  • 031830Z AUTO 16009KT 9999 FEW019/// SCT037/// BKN070/// 21/16 Q1005
  • 031800Z AUTO 17014KT 9999 BKN020 BKN028 OVC068 21/17 Q1006 NOSIG
  • 031730Z AUTO 17012KT 9999 SCT017 SCT022 BKN068 22/17 Q1006 NOSIG
  • 031700Z AUTO 17015KT 9999 BKN017/// BKN026/// BKN068/// 22/17 Q1006 NOSIG
  • 031630Z AUTO 18015KT 9999 BKN016 BKN024 BKN072 22/17 Q1006 NOSIG

TAF TAF LFMI
Valide du 03 à 15h jusqu'au 04 à 15h UTC


031400Z 0315/0415 19017KT CAVOK
BECMG 0320/0322 BKN014
TEMPO 0400/0409 RA SCT010 BKN015TCU
PROB30
TEMPO 0403/0409 4000 TSRA BKN010 BKN015CB



MET'MAP, la Météo Aéronautique d'un coup d'oeil ! - Copyright ORBIFLY Décembre 2007 - Disclaimer

ORBIFLY MET'MAP TEAM :

Programmation & Développement : Alexandra Zaïnal
Sur une idée originale de : Baudouin d'Aumeries
Assistance à la programmation : Marc-Olivier Méhu
Soutien technique & logistique : Manuel Goepfert

Contact : metmap@orbifly.com




SOURCES & CREDITS :

   NOAA